createdAt,value
2023-05-04T00:01:48.784Z,9.4
2023-05-04T00:03:51.155Z,8.7
2023-05-04T00:05:52.960Z,9
2023-05-04T00:07:58.268Z,9.1
2023-05-04T00:10:00.362Z,10.5
2023-05-04T00:12:02.480Z,10
2023-05-04T00:13:05.177Z,8.7
2023-05-04T00:35:34.522Z,8.1
2023-05-04T00:39:38.680Z,7.1
2023-05-04T00:41:40.766Z,8.6
2023-05-04T00:43:42.869Z,7.8
2023-05-04T00:45:44.929Z,9.2
2023-05-04T00:47:47.085Z,9.9
2023-05-04T01:02:04.855Z,8.8
2023-05-04T01:10:43.241Z,7.1
2023-05-04T01:18:54.830Z,9.2
2023-05-04T01:20:56.896Z,8.3
2023-05-04T01:27:03.126Z,7.6
2023-05-04T01:29:05.181Z,8.8
2023-05-04T01:33:12.576Z,7.4
2023-05-04T01:35:14.663Z,9.3
2023-05-04T01:39:18.802Z,7.8
2023-05-04T01:41:20.887Z,7.8
2023-05-04T01:45:28.241Z,8.3
2023-05-04T01:47:30.364Z,9.4
2023-05-04T01:51:34.468Z,8
2023-05-04T01:53:36.523Z,8.1
2023-05-04T02:01:48.026Z,7.9
2023-05-04T02:03:50.148Z,7.8
2023-05-04T02:04:52.730Z,9.2
2023-05-04T02:06:54.781Z,8.6
2023-05-04T02:08:56.840Z,8.4
2023-05-04T02:10:58.892Z,8.8
2023-05-04T02:19:10.370Z,8
2023-05-04T02:23:14.507Z,9.3
2023-05-04T02:37:32.111Z,8.9
2023-05-04T02:43:41.504Z,10
2023-05-04T02:45:43.600Z,10.2
2023-05-04T02:51:49.711Z,7.8
2023-05-04T02:53:51.750Z,9.3
2023-05-04T02:55:57.039Z,9.3
2023-05-04T02:57:59.080Z,8.1
2023-05-04T03:01:03.770Z,8.8
2023-05-04T03:03:05.848Z,9
2023-05-04T03:07:09.927Z,9.9
2023-05-04T03:09:15.199Z,8
2023-05-04T03:11:17.252Z,8.4
2023-05-04T03:13:19.337Z,9.6
2023-05-04T03:15:21.355Z,8.8
2023-05-04T03:17:23.390Z,8.8
2023-05-04T03:19:25.474Z,9.9
2023-05-04T03:21:27.500Z,9.9
2023-05-04T03:23:32.782Z,9.8
2023-05-04T03:25:34.898Z,9.2
2023-05-04T03:27:37.136Z,8.6
2023-05-04T03:29:38.968Z,9.5
2023-05-04T03:43:58.062Z,8.9
2023-05-04T03:57:16.269Z,11
2023-05-04T03:59:18.320Z,9.9
2023-05-04T04:01:20.422Z,12.1
2023-05-04T04:03:22.598Z,10.5
2023-05-04T04:05:27.679Z,10.4
2023-05-04T04:07:29.722Z,10.8
2023-05-04T04:09:31.750Z,11.5
2023-05-04T04:11:33.791Z,12.4
2023-05-04T04:13:35.888Z,12.6
2023-05-04T04:15:37.869Z,10.7
2023-05-04T04:17:39.989Z,10.9
2023-05-04T04:19:45.207Z,10.1
2023-05-04T04:21:47.236Z,11.6
2023-05-04T04:23:49.275Z,12.1
2023-05-04T04:25:51.320Z,13.7
2023-05-04T04:27:53.355Z,11.1
2023-05-04T04:34:02.706Z,12.1
2023-05-04T04:44:12.893Z,11.4
2023-05-04T04:46:14.997Z,13
2023-05-04T04:48:20.211Z,12.4
2023-05-04T04:50:22.262Z,12
2023-05-04T04:52:24.275Z,12.6
2023-05-04T05:01:02.590Z,12.6
2023-05-04T05:09:10.694Z,13.4
2023-05-04T05:11:12.717Z,15
2023-05-04T05:15:20.053Z,14
2023-05-04T05:19:24.165Z,13.4
2023-05-04T05:23:28.270Z,14.9
2023-05-04T05:47:59.542Z,12.6
2023-05-04T05:49:02.137Z,13.6
2023-05-04T05:51:04.190Z,14.1
2023-05-04T05:53:06.243Z,12.8
2023-05-04T06:01:17.757Z,13.3
2023-05-04T06:03:19.940Z,13.5
2023-05-04T06:05:21.892Z,13.7
2023-05-04T06:07:23.970Z,14.6
2023-05-04T06:09:26.038Z,12.8
2023-05-04T06:11:31.386Z,16.1
2023-05-04T06:15:35.543Z,12.6
2023-05-04T06:21:41.771Z,12.5
2023-05-04T06:23:43.881Z,12.4
2023-05-04T06:25:49.196Z,14
2023-05-04T06:27:51.291Z,13.8
2023-05-04T06:29:53.383Z,12.6
2023-05-04T06:31:55.503Z,12.2
2023-05-04T06:35:59.674Z,13.3
2023-05-04T06:38:01.762Z,12.6
2023-05-04T06:40:07.092Z,13.7
2023-05-04T06:42:09.197Z,13.3
2023-05-04T06:44:11.301Z,13.8
2023-05-04T06:45:13.960Z,12.1
2023-05-04T06:55:27.711Z,12.3
2023-05-04T06:57:29.859Z,13.4
2023-05-04T06:59:31.949Z,11.3
2023-05-04T07:01:34.109Z,10.6
2023-05-04T07:03:36.244Z,11.4
2023-05-04T07:05:38.316Z,10.5
2023-05-04T07:22:01.664Z,10.6
2023-05-04T07:24:03.706Z,9.9
2023-05-04T07:28:07.872Z,9.5
2023-05-04T07:38:21.709Z,10.6
2023-05-04T07:41:26.588Z,11.1
2023-05-04T07:45:30.843Z,8.5
2023-05-04T07:47:33.012Z,9.5
2023-05-04T07:53:42.549Z,9.4
2023-05-04T07:57:46.772Z,9.6
2023-05-04T08:01:51.076Z,8.9
2023-05-04T08:03:56.360Z,10
2023-05-04T08:05:58.494Z,9.6
2023-05-04T08:08:00.568Z,9.1
2023-05-04T08:14:06.957Z,9.5
2023-05-04T08:16:08.982Z,8.6
2023-05-04T08:18:14.271Z,9.8
2023-05-04T08:24:20.452Z,9.9
2023-05-04T08:26:22.484Z,10.9
2023-05-04T08:28:24.576Z,9.4
2023-05-04T08:32:33.249Z,9.5
2023-05-04T08:39:04.603Z,10.8
2023-05-04T08:43:08.733Z,7.9
2023-05-04T08:45:13.952Z,8.9
2023-05-04T08:47:16.000Z,8.5
2023-05-04T08:51:20.154Z,8.3
2023-05-04T08:57:26.376Z,8.3
2023-05-04T08:59:31.615Z,8.4
2023-05-04T09:01:33.746Z,8.4
2023-05-04T09:05:37.847Z,9.6
2023-05-04T09:15:51.664Z,8.9
2023-05-04T09:17:57.798Z,9.4
2023-05-04T09:19:55.644Z,8.2
2023-05-04T09:21:57.664Z,8.6
2023-05-04T09:23:59.746Z,7.4
2023-05-04T09:26:03.396Z,8.4
2023-05-04T09:28:08.578Z,9.3
2023-05-04T09:30:10.666Z,7.3
2023-05-04T09:32:12.751Z,8.2
2023-05-04T09:33:15.351Z,8.4
2023-05-04T09:35:29.278Z,7
2023-05-04T09:37:19.508Z,8.3
2023-05-04T09:45:30.989Z,9.1
2023-05-04T09:47:33.081Z,8.4
2023-05-04T09:55:44.560Z,15.4
2023-05-04T09:57:46.631Z,9.2
2023-05-04T09:59:48.710Z,8
2023-05-04T10:01:50.823Z,7.6
2023-05-04T10:03:52.882Z,7.9
2023-05-04T10:05:55.049Z,7
2023-05-04T10:12:04.350Z,8.6
2023-05-04T10:14:06.462Z,7.5
2023-05-04T10:16:08.627Z,9.3
2023-05-04T10:18:10.621Z,10.5
2023-05-04T10:20:12.698Z,8.1
2023-05-04T10:22:14.804Z,7
2023-05-04T10:24:20.059Z,7
2023-05-04T10:26:22.109Z,7.9
2023-05-04T10:29:26.827Z,7.1
2023-05-04T10:31:28.920Z,7.1
2023-05-04T10:33:30.996Z,6.4
2023-05-04T10:35:33.077Z,6.9
2023-05-04T10:37:38.321Z,6.6
2023-05-04T10:47:48.810Z,6.5
2023-05-04T10:58:02.331Z,6.2
2023-05-04T11:10:17.990Z,7.5
2023-05-04T11:12:20.124Z,7.1
2023-05-04T11:14:22.190Z,6.6
2023-05-04T11:16:24.282Z,7.4
2023-05-04T11:18:26.425Z,6.5
2023-05-04T11:20:31.609Z,6.3
2023-05-04T11:25:38.366Z,7.6
2023-05-04T11:33:49.856Z,6.5
2023-05-04T11:37:54.033Z,5.9
2023-05-04T11:39:56.107Z,5.8
2023-05-04T11:41:58.168Z,5.1
2023-05-04T11:44:00.243Z,6.8
2023-05-04T11:46:02.367Z,5
2023-05-04T11:48:07.594Z,6.1
2023-05-04T11:50:09.630Z,5.9
2023-05-04T11:52:11.737Z,5.5
2023-05-04T11:54:13.801Z,5
2023-05-04T11:56:15.902Z,4.7
2023-05-04T11:58:17.949Z,5.1
2023-05-04T12:02:25.290Z,5.7
2023-05-04T12:06:29.444Z,5.7
2023-05-04T12:10:33.620Z,6
2023-05-04T12:12:35.682Z,5.6
2023-05-04T12:14:37.729Z,5.3
2023-05-04T12:16:40.862Z,6.2
2023-05-04T12:18:42.868Z,4.9
2023-05-04T12:20:44.930Z,5.6
2023-05-04T12:23:13.439Z,5.8
2023-05-04T12:27:17.593Z,5.8
2023-05-04T12:29:22.822Z,6.1
2023-05-04T12:31:25.352Z,5.4
2023-05-04T12:33:26.961Z,5.6
2023-05-04T12:35:29.029Z,6.3
2023-05-04T12:37:31.105Z,6.3
2023-05-04T12:41:35.224Z,5.9
2023-05-04T12:43:40.509Z,13.7
2023-05-04T12:45:42.550Z,10.6
2023-05-04T12:47:44.636Z,6.1
2023-05-04T12:49:46.644Z,6.9
2023-05-04T12:51:48.721Z,6.8
2023-05-04T12:55:52.839Z,6.6
2023-05-04T13:08:08.345Z,6.1
2023-05-04T13:10:10.546Z,5.6
2023-05-04T13:12:15.627Z,5.8
2023-05-04T13:14:17.675Z,7.1
2023-05-04T13:17:22.327Z,5.7
2023-05-04T13:21:26.440Z,6.7
2023-05-04T13:25:33.680Z,6.2
2023-05-04T13:27:35.699Z,7.1
2023-05-04T13:33:41.860Z,6.2
2023-05-04T13:35:43.889Z,6.1
2023-05-04T13:37:45.932Z,6.8
2023-05-04T13:39:51.143Z,6.1
2023-05-04T13:41:53.169Z,6.6
2023-05-04T13:43:55.246Z,7.2
2023-05-04T13:47:59.313Z,6.6
2023-05-04T13:50:01.345Z,5.5
2023-05-04T13:52:03.352Z,5.7
2023-05-04T13:54:08.554Z,5.7
2023-05-04T13:56:10.567Z,6.1
2023-05-04T13:58:12.619Z,6
2023-05-04T14:00:16.620Z,5.8
2023-05-04T14:02:16.707Z,6.3
2023-05-04T14:06:20.716Z,6
2023-05-04T14:08:25.888Z,5.8
2023-05-04T14:10:27.910Z,6.3
2023-05-04T14:12:29.964Z,5.8
2023-05-04T14:13:32.537Z,5.7
2023-05-04T14:15:34.543Z,6.9
2023-05-04T14:17:36.549Z,4.9
2023-05-04T14:19:38.582Z,6.3
2023-05-04T14:21:43.753Z,7.2
2023-05-04T14:23:45.758Z,5.8
2023-05-04T14:25:47.771Z,6.8
2023-05-04T14:27:49.790Z,7.9
2023-05-04T14:31:53.827Z,6.9
2023-05-04T14:33:56.945Z,5.6
2023-05-04T14:36:01.048Z,7.7
2023-05-04T14:38:03.011Z,6.5
2023-05-04T14:40:05.290Z,6.5
2023-05-04T14:42:07.062Z,7.2
2023-05-04T14:44:09.086Z,7.2
2023-05-04T14:46:11.092Z,7.2
2023-05-04T14:48:13.107Z,7.1
2023-05-04T14:50:18.258Z,7.2
2023-05-04T14:52:20.259Z,7.3
2023-05-04T14:54:22.266Z,7.2
2023-05-04T14:56:24.267Z,6.7
2023-05-04T14:58:26.299Z,7.9
2023-05-04T15:00:28.293Z,7.4
2023-05-04T15:02:30.316Z,7.6
2023-05-04T15:06:37.466Z,7.5
2023-05-04T15:11:44.039Z,6.7
2023-05-04T15:15:48.060Z,7.6
2023-05-04T15:17:54.826Z,6.9
2023-05-04T15:28:04.701Z,7.3
2023-05-04T15:30:07.000Z,9.2
2023-05-04T15:34:15.137Z,9.1
2023-05-04T15:36:15.928Z,8.2
2023-05-04T15:38:17.892Z,8.2
2023-05-04T15:40:19.909Z,6.8
2023-05-04T15:42:21.928Z,8.9
2023-05-04T15:44:23.943Z,8.3
2023-05-04T15:46:29.180Z,6.8
2023-05-04T15:48:31.120Z,9.2
2023-05-04T15:50:33.355Z,8.6
2023-05-04T15:52:35.133Z,6.8
2023-05-04T15:56:39.155Z,8.6
2023-05-04T15:58:41.249Z,8.4
2023-05-04T16:00:46.402Z,8.6
2023-05-04T16:07:18.833Z,9.4
2023-05-04T16:11:22.854Z,9.4
2023-05-04T16:13:28.042Z,8.7
2023-05-04T16:25:40.141Z,9.7
2023-05-04T16:33:51.368Z,7.8
2023-05-04T16:35:53.422Z,7.8
2023-05-04T16:37:55.429Z,7.4
2023-05-04T16:39:57.460Z,8.4
2023-05-04T16:42:02.941Z,8.3
2023-05-04T16:44:04.729Z,8
2023-05-04T16:46:06.772Z,8.9
2023-05-04T16:48:08.836Z,8
2023-05-04T16:50:10.834Z,7.5
2023-05-04T16:54:14.918Z,6.3
2023-05-04T16:58:22.180Z,6.9
2023-05-04T17:00:24.217Z,6.7
2023-05-04T17:01:26.880Z,6.9
2023-05-04T17:03:28.920Z,6.7
2023-05-04T17:05:30.937Z,6.4
2023-05-04T17:09:38.205Z,5.7
2023-05-04T17:11:40.364Z,6.2
2023-05-04T17:13:42.331Z,4.8
2023-05-04T17:15:44.466Z,5.6
2023-05-04T17:17:46.494Z,5.5
2023-05-04T17:19:48.522Z,5
2023-05-04T17:21:50.624Z,4.8
2023-05-04T17:23:55.845Z,4.8
2023-05-04T17:25:57.913Z,5.5
2023-05-04T17:27:59.975Z,4.8
2023-05-04T17:32:04.154Z,4.9
2023-05-04T17:34:06.205Z,4.6
2023-05-04T17:38:13.530Z,5.7
2023-05-04T17:40:15.616Z,5.8
2023-05-04T17:42:17.642Z,4.1
2023-05-04T17:44:19.732Z,5.4
2023-05-04T17:46:21.820Z,5.3
2023-05-04T17:48:24.065Z,4.8
2023-05-04T17:52:31.195Z,3.7
2023-05-04T17:54:33.264Z,3.5
2023-05-04T17:57:37.950Z,4.5
2023-05-04T18:01:42.186Z,5.4
2023-05-04T18:15:59.915Z,5
2023-05-04T18:18:02.060Z,5.1
2023-05-04T18:22:09.289Z,5.5
2023-05-04T18:24:11.373Z,4.9
2023-05-04T18:26:13.460Z,4.4
2023-05-04T18:28:15.532Z,5
2023-05-04T18:30:17.663Z,4.5
2023-05-04T18:32:19.720Z,6.3
2023-05-04T18:34:25.000Z,5.7
2023-05-04T18:36:27.059Z,4.8
2023-05-04T18:40:31.231Z,5.6
2023-05-04T18:42:33.316Z,4.4
2023-05-04T18:44:35.404Z,4.7
2023-05-04T18:46:37.507Z,4.7
2023-05-04T18:50:44.840Z,5
2023-05-04T18:53:49.571Z,4.8
2023-05-04T18:55:51.645Z,4.9
2023-05-04T18:59:55.841Z,4.5
2023-05-04T19:08:07.368Z,4
2023-05-04T19:14:13.720Z,4.8
2023-05-04T19:22:25.185Z,6.6
2023-05-04T19:24:27.265Z,6.2
2023-05-04T19:26:29.372Z,6.1
2023-05-04T19:28:31.461Z,7.2
2023-05-04T19:30:36.719Z,7.5
2023-05-04T19:32:38.852Z,6.9
2023-05-04T19:34:40.901Z,6.5
2023-05-04T19:36:43.000Z,7.6
2023-05-04T19:38:45.125Z,7.4
2023-05-04T19:40:47.206Z,6.5
2023-05-04T19:42:49.283Z,8
2023-05-04T19:44:54.526Z,6.4
2023-05-04T19:46:56.701Z,5.3
2023-05-04T19:55:31.539Z,5.6
2023-05-04T20:01:40.987Z,5.8
2023-05-04T20:03:43.091Z,7.1
2023-05-04T20:05:45.184Z,7.4
2023-05-04T20:13:56.726Z,6.9
2023-05-04T20:15:58.855Z,6.8
2023-05-04T20:18:00.949Z,7.1
2023-05-04T20:20:03.018Z,7.7
2023-05-04T20:22:05.113Z,6.6
2023-05-04T20:24:07.187Z,8
2023-05-04T20:38:25.025Z,8
2023-05-04T20:40:30.305Z,8.9
2023-05-04T20:44:34.487Z,10.4
2023-05-04T20:47:39.216Z,8.9
2023-05-04T20:51:43.384Z,9.7
2023-05-04T21:06:01.192Z,8.1
2023-05-04T21:10:10.201Z,8.4
2023-05-04T21:12:12.169Z,7.9
2023-05-04T21:16:16.432Z,7.7
2023-05-04T21:24:27.884Z,8
2023-05-04T21:26:29.971Z,8
2023-05-04T21:28:32.113Z,7.7
2023-05-04T21:30:34.178Z,7.4
2023-05-04T21:34:38.368Z,8.7
2023-05-04T21:36:43.611Z,8.6
2023-05-04T21:38:45.691Z,9.3
2023-05-04T21:40:47.781Z,9.2
2023-05-04T21:41:50.411Z,8.2
2023-05-04T21:43:52.499Z,8.5
2023-05-04T21:45:54.608Z,7.9
2023-05-04T21:47:56.720Z,8.7
2023-05-04T21:52:04.007Z,8.9
2023-05-04T21:54:06.097Z,10.2
2023-05-04T21:56:08.185Z,10.1
2023-05-04T21:58:10.282Z,12.4
2023-05-04T22:00:12.368Z,9.6
2023-05-04T22:04:19.766Z,10.9
2023-05-04T22:14:30.121Z,11.1
2023-05-04T22:18:37.428Z,8.9
2023-05-04T22:22:41.601Z,7.4
2023-05-04T22:24:43.693Z,8.7
2023-05-04T22:26:45.803Z,8.5
2023-05-04T22:30:49.971Z,8.9
2023-05-04T22:32:55.258Z,9.4
2023-05-04T22:34:57.266Z,8.1
2023-05-04T22:36:59.360Z,8.8
2023-05-04T22:38:01.997Z,7.6
2023-05-04T22:40:04.104Z,8.1
2023-05-04T22:50:17.669Z,6.3
2023-05-04T22:52:19.744Z,6.6
2023-05-04T22:54:21.816Z,7.8
2023-05-04T22:56:23.924Z,7.3
2023-05-04T22:58:25.989Z,6.6
2023-05-04T23:00:31.237Z,6.9
2023-05-04T23:02:33.356Z,7.4
2023-05-04T23:04:35.444Z,6.8
2023-05-04T23:06:37.504Z,7.7
2023-05-04T23:08:39.573Z,7.1
2023-05-04T23:10:41.647Z,8.8
2023-05-04T23:12:43.777Z,7.6
2023-05-04T23:14:48.976Z,6.6
2023-05-04T23:16:51.055Z,6.7
2023-05-04T23:18:53.157Z,8.4
2023-05-04T23:20:55.223Z,7.3
2023-05-04T23:22:57.319Z,8.5
2023-05-04T23:27:01.505Z,8.8
2023-05-04T23:33:10.902Z,6.6
2023-05-04T23:39:43.711Z,6.6
2023-05-04T23:41:49.038Z,6.9
2023-05-04T23:58:08.788Z,5.4
